createdAt,value
2023-02-23T00:02:31.351Z,10.78
2023-02-23T00:05:08.193Z,10.80
2023-02-23T00:07:47.973Z,10.80
2023-02-23T00:10:30.427Z,10.80
2023-02-23T00:13:08.538Z,10.80
2023-02-23T00:15:46.263Z,10.80
2023-02-23T00:18:24.643Z,10.82
2023-02-23T00:21:04.530Z,10.90
2023-02-23T00:23:41.187Z,10.90
2023-02-23T00:26:20.916Z,10.90
2023-02-23T00:28:58.264Z,10.90
2023-02-23T00:34:27.848Z,11.00
2023-02-23T00:37:05.663Z,11.00
2023-02-23T00:39:42.058Z,11.00
2023-02-23T00:42:19.000Z,10.90
2023-02-23T00:44:56.582Z,10.90
2023-02-23T00:47:32.479Z,10.90
2023-02-23T00:50:15.678Z,10.90
2023-02-23T00:52:52.141Z,10.90
2023-02-23T00:55:28.563Z,10.90
2023-02-23T00:58:05.904Z,10.90
2023-02-23T01:00:45.061Z,10.90
2023-02-23T01:03:21.320Z,10.98
2023-02-23T01:06:04.924Z,11.00
2023-02-23T01:08:43.972Z,11.00
2023-02-23T01:11:24.176Z,11.00
2023-02-23T01:14:03.896Z,11.10
2023-02-23T01:16:41.527Z,11.10
2023-02-23T01:19:18.141Z,11.10
2023-02-23T01:21:55.062Z,11.10
2023-02-23T01:24:32.146Z,11.10
2023-02-23T01:27:09.251Z,11.00
2023-02-23T01:29:46.248Z,11.02
2023-02-23T01:32:25.017Z,11.08
2023-02-23T01:35:01.410Z,11.10
2023-02-23T01:37:43.896Z,11.10
2023-02-23T01:40:29.244Z,11.10
2023-02-23T01:43:26.441Z,11.10
2023-02-23T01:46:04.068Z,11.10
2023-02-23T01:48:44.667Z,11.20
2023-02-23T01:51:24.785Z,11.20
2023-02-23T01:54:11.085Z,11.20
2023-02-23T01:56:58.426Z,11.30
2023-02-23T01:59:41.697Z,11.30
2023-02-23T02:02:20.069Z,11.30
2023-02-23T02:04:58.669Z,11.30
2023-02-23T02:07:40.052Z,11.30
2023-02-23T02:10:45.097Z,11.30
2023-02-23T02:13:38.291Z,11.20
2023-02-23T02:16:51.317Z,11.20
2023-02-23T02:20:36.296Z,11.20
2023-02-23T02:23:49.946Z,11.20
2023-02-23T02:26:43.510Z,11.20
2023-02-23T02:30:02.569Z,11.20
2023-02-23T02:33:04.833Z,11.20
2023-02-23T02:36:20.630Z,11.20
2023-02-23T02:39:11.099Z,11.20
2023-02-23T02:41:55.322Z,11.22
2023-02-23T02:44:44.048Z,11.22
2023-02-23T02:47:31.360Z,11.24
2023-02-23T02:50:20.560Z,11.20
2023-02-23T02:53:06.567Z,11.20
2023-02-23T02:55:47.305Z,11.28
2023-02-23T02:58:26.073Z,11.30
2023-02-23T03:01:28.668Z,11.30
2023-02-23T03:04:38.405Z,11.30
2023-02-23T03:07:41.406Z,11.30
2023-02-23T03:10:44.867Z,11.30
2023-02-23T03:13:56.129Z,11.30
2023-02-23T03:17:02.298Z,11.30
2023-02-23T03:20:06.636Z,11.30
2023-02-23T03:23:12.640Z,11.30
2023-02-23T03:26:19.565Z,11.30
2023-02-23T03:29:28.238Z,11.30
2023-02-23T03:32:34.483Z,11.30
2023-02-23T03:35:35.781Z,11.20
2023-02-23T03:38:36.696Z,11.20
2023-02-23T03:41:35.711Z,11.10
2023-02-23T03:44:37.277Z,11.00
2023-02-23T03:47:32.847Z,11.00
2023-02-23T03:50:36.894Z,11.00
2023-02-23T03:53:34.035Z,10.98
2023-02-23T03:56:32.583Z,11.00
2023-02-23T03:59:30.409Z,11.00
2023-02-23T04:02:27.814Z,11.00
2023-02-23T04:05:24.722Z,11.00
2023-02-23T04:08:19.862Z,11.00
2023-02-23T04:11:23.069Z,11.00
2023-02-23T04:14:06.300Z,11.00
2023-02-23T04:16:42.982Z,11.00
2023-02-23T04:19:20.740Z,11.00
2023-02-23T04:21:57.761Z,11.00
2023-02-23T04:24:35.458Z,10.96
2023-02-23T04:27:13.008Z,10.90
2023-02-23T04:29:50.648Z,10.90
2023-02-23T04:32:27.987Z,10.90
2023-02-23T04:35:04.856Z,10.90
2023-02-23T04:37:41.814Z,10.90
2023-02-23T04:40:24.444Z,10.86
2023-02-23T04:43:00.850Z,10.80
2023-02-23T04:45:37.659Z,10.82
2023-02-23T04:48:14.715Z,10.80
2023-02-23T04:50:54.445Z,10.84
2023-02-23T04:53:31.068Z,10.86
2023-02-23T04:56:08.334Z,10.90
2023-02-23T04:58:45.964Z,10.90
2023-02-23T05:01:22.915Z,10.82
2023-02-23T05:04:00.471Z,10.80
2023-02-23T05:06:37.814Z,10.80
2023-02-23T05:09:15.232Z,10.80
2023-02-23T05:11:51.835Z,10.78
2023-02-23T05:14:29.673Z,10.70
2023-02-23T05:17:08.482Z,10.70
2023-02-23T05:19:45.585Z,10.70
2023-02-23T05:22:22.897Z,10.78
2023-02-23T05:24:59.471Z,10.80
2023-02-23T05:27:35.942Z,10.80
2023-02-23T05:30:17.989Z,10.80
2023-02-23T05:32:53.868Z,10.80
2023-02-23T05:35:30.714Z,10.80
2023-02-23T05:38:07.532Z,10.80
2023-02-23T05:40:44.109Z,10.80
2023-02-23T05:43:21.315Z,10.82
2023-02-23T05:45:58.358Z,10.88
2023-02-23T05:48:35.374Z,10.90
2023-02-23T05:51:14.394Z,10.88
2023-02-23T05:53:51.605Z,10.90
2023-02-23T05:56:27.902Z,10.90
2023-02-23T05:59:04.611Z,10.90
2023-02-23T06:01:42.036Z,10.90
2023-02-23T06:04:19.320Z,10.90
2023-02-23T06:06:58.245Z,10.90
2023-02-23T06:09:35.432Z,10.98
2023-02-23T06:12:13.761Z,11.00
2023-02-23T06:14:50.793Z,11.00
2023-02-23T06:17:27.167Z,10.90
2023-02-23T06:20:05.116Z,10.80
2023-02-23T06:22:42.492Z,10.80
2023-02-23T06:25:19.626Z,10.70
2023-02-23T06:27:57.508Z,10.64
2023-02-23T06:30:34.887Z,10.70
2023-02-23T06:33:11.788Z,10.70
2023-02-23T06:35:48.556Z,10.70
2023-02-23T06:38:26.618Z,10.80
2023-02-23T06:41:09.199Z,10.80
2023-02-23T06:43:46.600Z,10.80
2023-02-23T06:46:23.195Z,10.90
2023-02-23T06:49:02.672Z,10.90
2023-02-23T06:51:38.961Z,10.90
2023-02-23T06:54:16.358Z,11.00
2023-02-23T06:56:53.560Z,11.08
2023-02-23T06:59:30.736Z,11.10
2023-02-23T07:02:07.052Z,11.10
2023-02-23T07:04:45.306Z,11.10
2023-02-23T07:07:22.462Z,11.10
2023-02-23T07:10:00.022Z,11.00
2023-02-23T07:12:37.689Z,11.00
2023-02-23T07:15:20.617Z,11.00
2023-02-23T07:17:58.552Z,11.02
2023-02-23T07:20:36.064Z,11.06
2023-02-23T07:23:13.122Z,11.10
2023-02-23T07:25:50.904Z,11.10
2023-02-23T07:28:27.421Z,11.10
2023-02-23T07:31:05.485Z,11.10
2023-02-23T07:33:43.203Z,11.10
2023-02-23T07:36:20.579Z,11.10
2023-02-23T07:38:57.655Z,11.14
2023-02-23T07:41:36.278Z,11.16
2023-02-23T07:44:13.968Z,11.20
2023-02-23T07:46:50.765Z,11.20
2023-02-23T07:49:27.816Z,11.20
2023-02-23T07:52:04.543Z,11.20
2023-02-23T07:54:41.691Z,11.20
2023-02-23T07:57:20.044Z,11.20
2023-02-23T07:59:57.966Z,11.20
2023-02-23T08:02:33.890Z,11.20
2023-02-23T08:05:10.856Z,11.20
2023-02-23T08:07:47.679Z,11.24
2023-02-23T08:10:26.061Z,11.20
2023-02-23T08:13:03.010Z,11.20
2023-02-23T08:15:40.177Z,11.20
2023-02-23T08:18:16.776Z,11.20
2023-02-23T08:20:53.307Z,11.20
2023-02-23T08:23:31.370Z,11.30
2023-02-23T08:26:10.301Z,11.30
2023-02-23T08:28:47.822Z,11.40
2023-02-23T08:31:25.434Z,11.40
2023-02-23T08:34:01.641Z,11.40
2023-02-23T08:36:39.289Z,11.40
2023-02-23T08:39:15.889Z,11.40
2023-02-23T08:41:52.673Z,11.40
2023-02-23T08:44:31.208Z,11.44
2023-02-23T08:47:08.741Z,11.50
2023-02-23T08:49:45.329Z,11.50
2023-02-23T08:52:21.700Z,11.56
2023-02-23T08:54:58.565Z,11.60
2023-02-23T08:57:37.566Z,11.60
2023-02-23T09:00:23.421Z,11.60
2023-02-23T09:03:00.395Z,11.70
2023-02-23T09:05:40.128Z,11.70
2023-02-23T09:08:16.512Z,11.80
2023-02-23T09:10:54.210Z,11.80
2023-02-23T09:13:30.971Z,11.90
2023-02-23T09:16:10.359Z,11.90
2023-02-23T09:18:48.397Z,11.92
2023-02-23T09:21:26.820Z,12.00
2023-02-23T09:24:02.852Z,12.00
2023-02-23T09:26:40.232Z,12.00
2023-02-23T09:29:17.531Z,12.10
2023-02-23T09:31:56.716Z,12.10
2023-02-23T09:34:35.698Z,12.20
2023-02-23T09:37:14.212Z,12.20
2023-02-23T09:39:51.708Z,12.30
2023-02-23T09:42:55.479Z,12.30
2023-02-23T09:45:44.663Z,12.30
2023-02-23T09:48:28.270Z,12.38
2023-02-23T09:51:09.630Z,12.40
2023-02-23T09:53:53.547Z,12.40
2023-02-23T09:56:38.263Z,12.50
2023-02-23T09:59:20.686Z,12.50
2023-02-23T10:02:22.941Z,12.50
2023-02-23T10:05:05.792Z,12.52
2023-02-23T10:07:53.125Z,12.60
2023-02-23T10:10:46.834Z,12.60
2023-02-23T10:13:40.918Z,12.60
2023-02-23T10:16:26.267Z,12.60
2023-02-23T10:19:15.662Z,12.60
2023-02-23T10:21:59.382Z,12.68
2023-02-23T10:24:41.929Z,12.62
2023-02-23T10:27:26.560Z,12.60
2023-02-23T10:30:05.050Z,12.70
2023-02-23T10:32:50.371Z,12.70
2023-02-23T10:35:30.111Z,12.70
2023-02-23T10:38:08.372Z,12.70
2023-02-23T10:40:47.358Z,12.70
2023-02-23T10:43:24.624Z,12.80
2023-02-23T10:46:01.588Z,12.80
2023-02-23T10:48:43.277Z,12.80
2023-02-23T10:51:30.843Z,12.90
2023-02-23T10:54:52.213Z,12.90
2023-02-23T10:57:39.875Z,12.90
2023-02-23T11:00:34.293Z,12.94
2023-02-23T11:03:31.794Z,13.00
2023-02-23T11:06:10.380Z,13.00
2023-02-23T11:08:47.194Z,13.04
2023-02-23T11:11:33.234Z,13.10
2023-02-23T11:14:26.576Z,13.10
2023-02-23T11:17:05.767Z,13.20
2023-02-23T11:19:44.945Z,13.26
2023-02-23T11:22:27.230Z,13.30
2023-02-23T11:25:06.908Z,13.30
2023-02-23T11:27:48.409Z,13.30
2023-02-23T11:30:32.288Z,13.38
2023-02-23T11:33:18.334Z,13.38
2023-02-23T11:36:03.208Z,13.30
2023-02-23T11:38:40.845Z,13.34
2023-02-23T11:41:30.456Z,13.40
2023-02-23T11:44:08.307Z,13.40
2023-02-23T11:46:48.071Z,13.46
2023-02-23T11:49:29.756Z,13.42
2023-02-23T11:52:14.567Z,13.50
2023-02-23T11:54:59.980Z,13.50
2023-02-23T11:57:39.977Z,13.52
2023-02-23T12:00:31.742Z,13.60
2023-02-23T12:03:10.678Z,13.60
2023-02-23T12:05:58.010Z,13.60
2023-02-23T12:08:47.031Z,13.60
2023-02-23T12:11:30.787Z,13.70
2023-02-23T12:14:17.596Z,13.70
2023-02-23T12:17:00.018Z,13.80
2023-02-23T12:19:40.294Z,13.80
2023-02-23T12:22:23.558Z,13.80
2023-02-23T12:25:06.130Z,13.80
2023-02-23T12:27:50.878Z,13.80
2023-02-23T12:30:41.597Z,13.80
2023-02-23T12:33:25.663Z,13.90
2023-02-23T12:36:10.398Z,13.90
2023-02-23T12:39:01.372Z,13.90
2023-02-23T12:41:45.735Z,13.96
2023-02-23T12:44:40.527Z,14.00
2023-02-23T12:47:41.517Z,14.00
2023-02-23T12:50:29.062Z,14.04
2023-02-23T12:53:24.668Z,14.10
2023-02-23T12:56:25.327Z,14.10
2023-02-23T12:59:23.354Z,14.10
2023-02-23T13:02:05.555Z,14.10
2023-02-23T13:05:13.215Z,14.12
2023-02-23T13:08:13.622Z,14.20
2023-02-23T13:10:59.353Z,14.20
2023-02-23T13:13:50.090Z,14.20
2023-02-23T13:16:37.509Z,14.20
2023-02-23T13:19:26.365Z,14.20
2023-02-23T13:22:23.758Z,14.12
2023-02-23T13:25:05.304Z,14.12
2023-02-23T13:27:51.498Z,14.20
2023-02-23T13:30:29.652Z,14.20
2023-02-23T13:33:12.819Z,14.20
2023-02-23T13:35:49.812Z,14.20
2023-02-23T13:38:39.739Z,14.20
2023-02-23T13:41:34.143Z,14.20
2023-02-23T13:44:25.189Z,14.20
2023-02-23T13:47:18.124Z,14.20
2023-02-23T13:50:05.842Z,14.20
2023-02-23T13:52:46.843Z,14.20
2023-02-23T13:55:52.268Z,14.20
2023-02-23T13:58:35.461Z,14.20
2023-02-23T14:01:35.931Z,14.20
2023-02-23T14:04:24.163Z,14.20
2023-02-23T14:07:08.109Z,14.20
2023-02-23T14:09:51.277Z,14.16
2023-02-23T14:12:38.727Z,14.10
2023-02-23T14:15:48.536Z,14.10
2023-02-23T14:18:53.512Z,14.10
2023-02-23T14:21:39.676Z,14.10
2023-02-23T14:24:25.432Z,14.10
2023-02-23T14:27:41.841Z,14.00
2023-02-23T14:30:50.732Z,14.00
2023-02-23T14:34:00.476Z,14.00
2023-02-23T14:36:45.475Z,13.94
2023-02-23T14:39:31.494Z,13.98
2023-02-23T14:42:22.083Z,14.00
2023-02-23T14:45:00.876Z,14.00
2023-02-23T14:47:48.437Z,14.00
2023-02-23T14:50:34.095Z,14.00
2023-02-23T14:53:17.040Z,14.00
2023-02-23T14:55:53.707Z,14.00
2023-02-23T14:58:36.861Z,14.00
2023-02-23T15:01:16.090Z,14.00
2023-02-23T15:04:25.863Z,14.00
2023-02-23T15:07:04.693Z,14.00
2023-02-23T15:09:45.538Z,13.90
2023-02-23T15:12:28.678Z,13.90
2023-02-23T15:15:07.690Z,13.90
2023-02-23T15:17:49.438Z,13.90
2023-02-23T15:20:32.756Z,13.80
2023-02-23T15:23:15.191Z,13.80
2023-02-23T15:25:51.364Z,13.80
2023-02-23T15:28:35.094Z,13.80
2023-02-23T15:31:17.638Z,13.76
2023-02-23T15:33:56.067Z,13.70
2023-02-23T15:36:37.279Z,13.70
2023-02-23T15:39:18.814Z,13.70
2023-02-23T15:41:56.452Z,13.80
2023-02-23T15:44:43.806Z,13.80
2023-02-23T15:47:29.392Z,13.80
2023-02-23T15:50:31.221Z,13.76
2023-02-23T15:53:23.075Z,13.70
2023-02-23T15:56:06.813Z,13.70
2023-02-23T15:58:57.258Z,13.70
2023-02-23T16:01:36.220Z,13.70
2023-02-23T16:04:21.371Z,13.70
2023-02-23T16:07:23.702Z,13.70
2023-02-23T16:10:20.954Z,13.68
2023-02-23T16:12:59.271Z,13.62
2023-02-23T16:15:40.354Z,13.62
2023-02-23T16:18:23.492Z,13.60
2023-02-23T16:21:04.933Z,13.60
2023-02-23T16:23:51.695Z,13.60
2023-02-23T16:26:34.496Z,13.50
2023-02-23T16:29:19.022Z,13.50
2023-02-23T16:32:02.458Z,13.50
2023-02-23T16:34:51.247Z,13.50
2023-02-23T16:37:31.104Z,13.40
2023-02-23T16:40:08.174Z,13.40
2023-02-23T16:42:44.965Z,13.40
2023-02-23T16:45:24.479Z,13.40
2023-02-23T16:48:08.120Z,13.30
2023-02-23T16:50:45.936Z,13.30
2023-02-23T16:53:22.999Z,13.30
2023-02-23T16:56:03.378Z,13.20
2023-02-23T16:58:42.203Z,13.20
2023-02-23T17:01:22.218Z,13.20
2023-02-23T17:03:59.615Z,13.10
2023-02-23T17:06:36.169Z,13.10
2023-02-23T17:09:12.773Z,13.10
2023-02-23T17:11:50.241Z,13.10
2023-02-23T17:14:32.280Z,13.10
2023-02-23T17:17:09.085Z,13.10
2023-02-23T17:19:46.398Z,13.06
2023-02-23T17:22:23.296Z,13.04
2023-02-23T17:25:02.220Z,13.00
2023-02-23T17:27:38.487Z,13.00
2023-02-23T17:30:20.576Z,13.00
2023-02-23T17:32:57.231Z,13.00
2023-02-23T17:35:37.703Z,13.00
2023-02-23T17:38:16.012Z,13.00
2023-02-23T17:40:53.504Z,13.00
2023-02-23T17:43:30.146Z,13.00
2023-02-23T17:46:07.186Z,13.00
2023-02-23T17:48:44.869Z,13.00
2023-02-23T17:51:23.039Z,13.00
2023-02-23T17:54:00.166Z,12.90
2023-02-23T17:56:36.982Z,12.90
2023-02-23T17:59:14.412Z,12.80
2023-02-23T18:01:52.195Z,12.80
2023-02-23T18:04:29.990Z,12.74
2023-02-23T18:07:07.833Z,12.70
2023-02-23T18:09:44.929Z,12.60
2023-02-23T18:12:21.179Z,12.60
2023-02-23T18:14:58.831Z,12.50
2023-02-23T18:17:37.518Z,12.50
2023-02-23T18:20:21.236Z,12.50
2023-02-23T18:22:59.078Z,12.50
2023-02-23T18:25:37.157Z,12.50
2023-02-23T18:28:14.410Z,12.40
2023-02-23T18:30:51.117Z,12.38
2023-02-23T18:33:28.608Z,12.30
2023-02-23T18:36:05.987Z,12.22
2023-02-23T18:38:43.408Z,12.30
2023-02-23T18:41:21.496Z,12.30
2023-02-23T18:43:57.432Z,12.28
2023-02-23T18:46:35.240Z,12.30
2023-02-23T18:49:14.044Z,12.20
2023-02-23T18:51:50.817Z,12.20
2023-02-23T18:54:28.390Z,12.10
2023-02-23T18:57:05.871Z,12.00
2023-02-23T18:59:42.651Z,12.00
2023-02-23T19:02:19.151Z,12.00
2023-02-23T19:05:03.304Z,12.00
2023-02-23T19:07:40.488Z,12.00
2023-02-23T19:10:18.175Z,11.96
2023-02-23T19:12:53.715Z,11.90
2023-02-23T19:15:31.404Z,11.80
2023-02-23T19:18:08.353Z,11.80
2023-02-23T19:20:45.572Z,11.90
2023-02-23T19:23:23.944Z,11.82
2023-02-23T19:26:02.806Z,11.80
2023-02-23T19:28:39.828Z,11.70
2023-02-23T19:31:23.935Z,11.62
2023-02-23T19:34:05.309Z,11.60
2023-02-23T19:36:42.690Z,11.60
2023-02-23T19:39:20.229Z,11.60
2023-02-23T19:41:56.947Z,11.60
2023-02-23T19:44:32.455Z,11.56
2023-02-23T19:47:10.060Z,11.50
2023-02-23T19:49:46.503Z,11.40
2023-02-23T19:52:24.897Z,11.38
2023-02-23T19:55:01.546Z,11.30
2023-02-23T19:57:39.124Z,11.30
2023-02-23T20:00:22.795Z,11.30
2023-02-23T20:03:06.337Z,11.40
2023-02-23T20:05:46.704Z,11.40
2023-02-23T20:08:23.188Z,11.34
2023-02-23T20:11:00.650Z,11.30
2023-02-23T20:13:39.098Z,11.30
2023-02-23T20:16:19.093Z,11.30
2023-02-23T20:18:55.982Z,11.30
2023-02-23T20:21:34.270Z,11.32
2023-02-23T20:24:13.288Z,11.40
2023-02-23T20:26:53.147Z,11.48
2023-02-23T20:29:29.916Z,11.50
2023-02-23T20:32:08.066Z,11.40
2023-02-23T20:34:48.133Z,11.40
2023-02-23T20:37:24.686Z,11.30
2023-02-23T20:40:01.915Z,11.22
2023-02-23T20:42:40.590Z,11.20
2023-02-23T20:45:21.204Z,11.20
2023-02-23T20:47:58.144Z,11.20
2023-02-23T20:50:35.332Z,11.20
2023-02-23T20:53:12.474Z,11.28
2023-02-23T20:55:49.490Z,11.30
2023-02-23T20:58:28.744Z,11.30
2023-02-23T21:01:07.699Z,11.20
2023-02-23T21:03:44.281Z,11.20
2023-02-23T21:06:21.591Z,11.12
2023-02-23T21:09:03.822Z,11.10
2023-02-23T21:11:41.314Z,11.10
2023-02-23T21:14:18.389Z,11.10
2023-02-23T21:16:56.898Z,11.20
2023-02-23T21:19:33.766Z,11.20
2023-02-23T21:22:10.840Z,11.20
2023-02-23T21:24:47.038Z,11.20
2023-02-23T21:27:24.754Z,11.18
2023-02-23T21:30:01.222Z,11.10
2023-02-23T21:32:43.671Z,11.10
2023-02-23T21:35:20.875Z,11.00
2023-02-23T21:37:57.350Z,11.00
2023-02-23T21:40:33.994Z,10.98
2023-02-23T21:43:10.220Z,10.96
2023-02-23T21:45:48.183Z,10.90
2023-02-23T21:48:26.065Z,10.90
2023-02-23T21:51:10.426Z,10.90
2023-02-23T21:53:48.019Z,10.80
2023-02-23T21:56:25.544Z,10.80
2023-02-23T21:59:04.446Z,10.80
2023-02-23T22:01:43.320Z,10.74
2023-02-23T22:04:22.484Z,10.70
2023-02-23T22:07:00.004Z,10.70
2023-02-23T22:09:36.963Z,10.70
2023-02-23T22:12:15.207Z,10.70
2023-02-23T22:14:52.220Z,10.70
2023-02-23T22:17:28.869Z,10.70
2023-02-23T22:20:07.471Z,10.70
2023-02-23T22:22:44.523Z,10.70
2023-02-23T22:25:23.710Z,10.70
2023-02-23T22:28:00.752Z,10.70
2023-02-23T22:30:38.329Z,10.62
2023-02-23T22:33:14.972Z,10.60
2023-02-23T22:35:51.025Z,10.60
2023-02-23T22:38:27.960Z,10.60
2023-02-23T22:41:08.642Z,10.60
2023-02-23T22:43:48.009Z,10.60
2023-02-23T22:46:26.173Z,10.60
2023-02-23T22:49:03.241Z,10.60
2023-02-23T22:51:41.518Z,10.56
2023-02-23T22:54:20.762Z,10.50
2023-02-23T22:56:58.211Z,10.42
2023-02-23T22:59:35.526Z,10.40
2023-02-23T23:02:13.041Z,10.40
2023-02-23T23:04:50.558Z,10.40
2023-02-23T23:07:28.597Z,10.40
2023-02-23T23:10:05.942Z,10.40
2023-02-23T23:12:43.111Z,10.40
2023-02-23T23:15:22.614Z,10.42
2023-02-23T23:18:00.229Z,10.40
2023-02-23T23:20:37.900Z,10.40
2023-02-23T23:23:15.097Z,10.36
2023-02-23T23:25:55.685Z,10.30
2023-02-23T23:28:32.559Z,10.32
2023-02-23T23:31:12.835Z,10.36
2023-02-23T23:33:50.463Z,10.40
2023-02-23T23:36:29.312Z,10.40
2023-02-23T23:39:12.158Z,10.40
2023-02-23T23:41:50.394Z,10.40
2023-02-23T23:44:30.104Z,10.40
2023-02-23T23:47:08.262Z,10.40
2023-02-23T23:49:45.726Z,10.40
2023-02-23T23:52:23.080Z,10.40
2023-02-23T23:55:03.943Z,10.40
2023-02-23T23:57:41.416Z,10.40
